Time;durP1;ratioP1;P1;durP2;ratioP2;P2;SDS_P1;SDS_P2;PMS_P1;PMS_P2;Temp;Humidity;BMP_temperature;BMP_pressure;BME280_temperature;BME280_humidity;BME280_pressure;Samples;Min_cycle;Max_cycle;Signal;HPM_P1;HPM_P2
2021/06/21 00:02:21;;;;;;;11.90;4.97;;;;;;;;;;1915669;75;20091;-78
2021/06/21 00:04:48;;;;;;;13.88;5.50;;;;;;;;;;1916111;75;20083;-78
2021/06/21 00:07:14;;;;;;;13.55;6.03;;;;;;;;;;1916337;75;20458;-78
2021/06/21 00:09:41;;;;;;;13.82;6.28;;;;;;;;;;1916325;75;20148;-78
2021/06/21 00:12:10;;;;;;;11.48;5.63;;;;;;;;;;1915605;75;20087;-78
2021/06/21 00:14:37;;;;;;;12.27;5.30;;;;;;;;;;1916045;75;20148;-77
2021/06/21 00:17:05;;;;;;;12.60;4.72;;;;;;;;;;1915709;75;20498;-78
2021/06/21 00:19:32;;;;;;;12.35;4.53;;;;;;;;;;1915599;75;20083;-80
2021/06/21 00:21:59;;;;;;;8.85;4.05;;;;;;;;;;1915602;75;20083;-79
2021/06/21 00:24:26;;;;;;;12.07;4.45;;;;;;;;;;1915814;75;20087;-78
2021/06/21 00:26:53;;;;;;;12.00;4.72;;;;;;;;;;1916408;75;20091;-79
2021/06/21 00:29:21;;;;;;;11.95;4.88;;;;;;;;;;1916057;75;20087;-80
2021/06/21 00:31:48;;;;;;;11.60;4.68;;;;;;;;;;1916203;75;20505;-79
2021/06/21 00:34:15;;;;;;;9.23;3.13;;;;;;;;;;1915941;75;20428;-79
2021/06/21 00:36:42;;;;;;;11.23;4.13;;;;;;;;;;1915882;75;20443;-79
2021/06/21 00:39:09;;;;;;;7.35;2.97;;;;;;;;;;1916148;75;20087;-79
2021/06/21 00:41:37;;;;;;;10.68;3.38;;;;;;;;;;1916540;75;20091;-79
2021/06/21 00:44:04;;;;;;;10.70;3.50;;;;;;;;;;1916171;75;20091;-78
2021/06/21 00:46:32;;;;;;;8.15;3.60;;;;;;;;;;1916228;75;20137;-79
2021/06/21 00:48:59;;;;;;;10.50;3.70;;;;;;;;;;1915564;75;20129;-79
2021/06/21 00:51:26;;;;;;;14.45;5.03;;;;;;;;;;1915179;75;20099;-78
2021/06/21 00:53:53;;;;;;;10.40;4.43;;;;;;;;;;1915685;75;20102;-78
2021/06/21 00:56:20;;;;;;;12.50;5.43;;;;;;;;;;1915641;75;20087;-78
2021/06/21 00:58:47;;;;;;;11.80;4.90;;;;;;;;;;1915541;75;20713;-78
2021/06/21 01:01:14;;;;;;;10.93;5.82;;;;;;;;;;1916366;67;20162;-79
2021/06/21 01:03:42;;;;;;;12.20;6.15;;;;;;;;;;1916088;75;20509;-78
2021/06/21 01:06:09;;;;;;;12.77;6.15;;;;;;;;;;1916100;75;20448;-78
2021/06/21 01:08:36;;;;;;;14.07;5.85;;;;;;;;;;1916362;75;20095;-79
2021/06/21 01:11:03;;;;;;;13.85;5.45;;;;;;;;;;1916244;75;20091;-78
2021/06/21 01:13:58;;;;;;;13.60;6.20;;;;;;;;;;1916417;75;20117;-78
2021/06/21 01:16:28;;;;;;;14.00;5.57;;;;;;;;;;1917199;75;20087;-79
2021/06/21 01:19:04;;;;;;;13.35;6.10;;;;;;;;;;1917496;75;20094;-79
2021/06/21 01:22:09;;;;;;;13.43;6.85;;;;;;;;;;1915954;75;20447;-79
2021/06/21 01:25:21;;;;;;;11.68;5.97;;;;;;;;;;1915919;75;20103;-79
2021/06/21 01:27:55;;;;;;;12.82;6.00;;;;;;;;;;1906618;75;20142;-79
2021/06/21 01:30:24;;;;;;;11.75;5.55;;;;;;;;;;1906560;75;20143;-79
2021/06/21 01:32:56;;;;;;;16.67;5.43;;;;;;;;;;1912053;75;20087;-79
2021/06/21 01:35:30;;;;;;;11.25;5.53;;;;;;;;;;1916446;75;20144;-79
2021/06/21 01:38:01;;;;;;;15.13;6.07;;;;;;;;;;1916509;75;20106;-79
2021/06/21 01:40:31;;;;;;;10.05;4.88;;;;;;;;;;1919067;75;20087;-78
2021/06/21 01:43:02;;;;;;;11.45;5.28;;;;;;;;;;1918685;75;20101;-79
2021/06/21 01:45:30;;;;;;;12.48;4.97;;;;;;;;;;1917838;75;20117;-79
2021/06/21 01:48:00;;;;;;;12.00;5.07;;;;;;;;;;1917385;75;20145;-80
2021/06/21 01:50:28;;;;;;;13.23;4.85;;;;;;;;;;1916779;75;20129;-80
2021/06/21 01:53:02;;;;;;;11.18;5.00;;;;;;;;;;1916120;75;20152;-79
2021/06/21 01:55:32;;;;;;;12.82;4.85;;;;;;;;;;1915740;75;20095;-80
2021/06/21 01:58:00;;;;;;;11.27;4.90;;;;;;;;;;1915875;75;20083;-79
2021/06/21 02:00:27;;;;;;;14.25;5.05;;;;;;;;;;1915527;75;20141;-77
2021/06/21 02:02:56;;;;;;;12.15;4.90;;;;;;;;;;1916028;75;20500;-77
2021/06/21 02:05:26;;;;;;;15.20;5.15;;;;;;;;;;1915513;75;20637;-77
2021/06/21 02:07:54;;;;;;;13.68;5.45;;;;;;;;;;1915714;75;20147;-77
2021/06/21 02:10:23;;;;;;;11.25;4.55;;;;;;;;;;1915881;75;20083;-78
2021/06/21 02:12:52;;;;;;;13.32;5.20;;;;;;;;;;1915512;75;20087;-77
2021/06/21 02:15:19;;;;;;;12.00;5.25;;;;;;;;;;1915433;75;20088;-77
2021/06/21 02:17:47;;;;;;;12.77;5.60;;;;;;;;;;1915719;75;20148;-78
2021/06/21 02:20:16;;;;;;;12.43;4.90;;;;;;;;;;1915757;75;20091;-78
2021/06/21 02:22:46;;;;;;;13.00;5.43;;;;;;;;;;1915102;75;20373;-77
2021/06/21 02:25:14;;;;;;;15.20;6.18;;;;;;;;;;1915807;75;20110;-78
2021/06/21 02:27:42;;;;;;;14.05;5.30;;;;;;;;;;1915296;75;20147;-77
2021/06/21 02:30:11;;;;;;;12.02;6.00;;;;;;;;;;1915457;75;20152;-77
2021/06/21 02:32:38;;;;;;;15.55;6.75;;;;;;;;;;1915439;75;20094;-78
2021/06/21 02:35:08;;;;;;;15.30;9.02;;;;;;;;;;1915364;75;20087;-77
2021/06/21 02:37:36;;;;;;;13.80;5.57;;;;;;;;;;1915312;75;20553;-78
2021/06/21 02:40:07;;;;;;;13.57;5.13;;;;;;;;;;1915246;75;20504;-79
2021/06/21 02:42:34;;;;;;;12.30;4.63;;;;;;;;;;1915437;75;20090;-78
2021/06/21 02:45:01;;;;;;;8.90;5.00;;;;;;;;;;1916165;75;20175;-78
2021/06/21 02:47:28;;;;;;;10.35;4.43;;;;;;;;;;1916079;75;20093;-78
2021/06/21 02:49:55;;;;;;;14.05;4.57;;;;;;;;;;1916543;75;20091;-79
2021/06/21 02:52:29;;;;;;;9.57;5.32;;;;;;;;;;1916185;75;20087;-79
2021/06/21 02:55:09;;;;;;;10.75;4.30;;;;;;;;;;1916078;75;20083;-78
2021/06/21 02:57:45;;;;;;;13.27;4.78;;;;;;;;;;1916156;75;20087;-78
2021/06/21 03:00:13;;;;;;;11.82;5.13;;;;;;;;;;1916242;67;20084;-78
2021/06/21 03:02:40;;;;;;;11.30;5.03;;;;;;;;;;1915747;75;20156;-78
2021/06/21 03:05:08;;;;;;;11.35;4.70;;;;;;;;;;1915829;75;20152;-78
2021/06/21 03:07:36;;;;;;;11.60;4.43;;;;;;;;;;1915528;75;20083;-78
2021/06/21 03:10:05;;;;;;;13.60;4.45;;;;;;;;;;1916087;75;20120;-78
2021/06/21 03:12:33;;;;;;;12.02;5.00;;;;;;;;;;1912968;75;20118;-78
2021/06/21 03:14:59;;;;;;;10.63;4.30;;;;;;;;;;1912813;75;20088;-78
2021/06/21 03:17:27;;;;;;;10.10;4.55;;;;;;;;;;1912857;75;20087;-79
2021/06/21 03:19:55;;;;;;;8.43;4.28;;;;;;;;;;1912925;75;20092;-78
2021/06/21 03:22:25;;;;;;;9.27;3.80;;;;;;;;;;1912472;75;20125;-78
2021/06/21 03:24:53;;;;;;;12.27;3.47;;;;;;;;;;1912581;75;20422;-78
2021/06/21 03:27:29;;;;;;;10.38;4.68;;;;;;;;;;1912936;75;20145;-79
2021/06/21 03:29:56;;;;;;;8.00;3.42;;;;;;;;;;1912833;75;20092;-79
2021/06/21 03:32:29;;;;;;;9.73;3.85;;;;;;;;;;1912438;75;20444;-79
2021/06/21 03:34:57;;;;;;;15.30;4.88;;;;;;;;;;1912365;75;20096;-78
2021/06/21 03:37:25;;;;;;;11.15;5.22;;;;;;;;;;1912911;75;20092;-78
2021/06/21 03:39:52;;;;;;;11.40;4.57;;;;;;;;;;1912784;75;20084;-78
2021/06/21 03:42:19;;;;;;;10.05;4.10;;;;;;;;;;1912677;75;20168;-78
2021/06/21 03:44:48;;;;;;;9.93;4.13;;;;;;;;;;1913007;75;20095;-80
2021/06/21 03:47:15;;;;;;;8.65;3.83;;;;;;;;;;1912908;75;20145;-78
2021/06/21 03:49:44;;;;;;;10.13;4.88;;;;;;;;;;1912934;75;20438;-78
2021/06/21 03:52:11;;;;;;;10.90;4.07;;;;;;;;;;1912826;75;20088;-78
2021/06/21 03:54:38;;;;;;;11.50;4.10;;;;;;;;;;1913223;75;20559;-78
2021/06/21 03:57:06;;;;;;;11.05;3.65;;;;;;;;;;1913214;75;20092;-79
2021/06/21 03:59:32;;;;;;;9.60;3.92;;;;;;;;;;1913427;75;20137;-78
2021/06/21 04:02:01;;;;;;;8.25;4.07;;;;;;;;;;1915550;75;20079;-78
2021/06/21 04:04:29;;;;;;;8.82;3.30;;;;;;;;;;1915156;75;20099;-78
2021/06/21 04:06:55;;;;;;;10.82;4.63;;;;;;;;;;1915524;75;20144;-78
2021/06/21 04:09:22;;;;;;;12.43;4.00;;;;;;;;;;1915750;75;20141;-79
2021/06/21 04:11:50;;;;;;;12.93;5.18;;;;;;;;;;1915731;75;20148;-78
2021/06/21 04:14:17;;;;;;;8.60;3.25;;;;;;;;;;1915818;75;20288;-78
2021/06/21 04:16:44;;;;;;;9.13;3.20;;;;;;;;;;1916191;75;20095;-78
2021/06/21 04:19:12;;;;;;;9.48;3.30;;;;;;;;;;1916165;75;20173;-78
2021/06/21 04:21:39;;;;;;;8.95;3.58;;;;;;;;;;1916449;75;20087;-78
2021/06/21 04:24:07;;;;;;;11.30;3.30;;;;;;;;;;1916398;75;20144;-79
2021/06/21 04:26:33;;;;;;;10.45;3.22;;;;;;;;;;1915869;75;20144;-78
2021/06/21 04:29:00;;;;;;;11.05;3.72;;;;;;;;;;1916162;75;20091;-79
2021/06/21 04:31:27;;;;;;;12.40;4.57;;;;;;;;;;1916269;75;20160;-79
2021/06/21 04:33:53;;;;;;;8.15;3.28;;;;;;;;;;1916520;75;20144;-78
2021/06/21 04:36:22;;;;;;;9.40;2.90;;;;;;;;;;1916776;75;20090;-79
2021/06/21 04:38:48;;;;;;;8.85;3.33;;;;;;;;;;1917813;75;20121;-78
2021/06/21 04:41:15;;;;;;;8.77;3.33;;;;;;;;;;1917670;75;20099;-78
2021/06/21 04:43:42;;;;;;;8.60;3.47;;;;;;;;;;1916052;75;20094;-78
2021/06/21 04:46:09;;;;;;;10.48;3.80;;;;;;;;;;1916183;75;20412;-79
2021/06/21 04:48:35;;;;;;;15.05;8.93;;;;;;;;;;1916267;75;20102;-79
2021/06/21 04:51:02;;;;;;;13.77;3.97;;;;;;;;;;1916190;75;20151;-80
2021/06/21 04:53:30;;;;;;;10.93;3.90;;;;;;;;;;1916201;75;20087;-80
2021/06/21 04:55:59;;;;;;;9.25;3.63;;;;;;;;;;1916217;75;20574;-79
2021/06/21 04:58:26;;;;;;;11.55;4.40;;;;;;;;;;1916619;75;20095;-79
2021/06/21 05:00:53;;;;;;;8.32;3.20;;;;;;;;;;1915960;75;20111;-78
2021/06/21 05:03:20;;;;;;;8.20;3.08;;;;;;;;;;1916087;75;20120;-78
2021/06/21 05:05:46;;;;;;;8.48;3.15;;;;;;;;;;1916186;75;20513;-78
2021/06/21 05:08:13;;;;;;;8.63;3.85;;;;;;;;;;1916312;75;20091;-78
2021/06/21 05:10:41;;;;;;;10.27;3.28;;;;;;;;;;1915775;75;20087;-78
2021/06/21 05:13:09;;;;;;;8.50;3.03;;;;;;;;;;1916116;75;20159;-78
2021/06/21 05:15:36;;;;;;;10.52;3.72;;;;;;;;;;1916203;75;20135;-79
2021/06/21 05:18:03;;;;;;;8.88;3.28;;;;;;;;;;1916107;75;20087;-79
2021/06/21 05:20:30;;;;;;;8.68;3.00;;;;;;;;;;1915723;75;20091;-80
2021/06/21 05:22:56;;;;;;;8.50;2.95;;;;;;;;;;1916141;75;20091;-79
2021/06/21 05:25:23;;;;;;;8.00;2.95;;;;;;;;;;1915768;75;20087;-79
2021/06/21 05:27:52;;;;;;;6.68;2.50;;;;;;;;;;1916049;75;20145;-81
2021/06/21 05:30:20;;;;;;;11.00;2.30;;;;;;;;;;1916602;75;20427;-78
2021/06/21 05:32:46;;;;;;;10.60;2.65;;;;;;;;;;1916300;75;20500;-80
2021/06/21 05:35:15;;;;;;;9.18;2.65;;;;;;;;;;1916484;75;20091;-78
2021/06/21 05:37:42;;;;;;;11.45;2.97;;;;;;;;;;1916356;75;20106;-78
2021/06/21 05:40:09;;;;;;;8.68;2.55;;;;;;;;;;1917073;75;20501;-78
2021/06/21 05:42:36;;;;;;;9.90;2.85;;;;;;;;;;1916748;75;20094;-79
2021/06/21 05:45:05;;;;;;;9.95;2.95;;;;;;;;;;1917261;75;20091;-78
2021/06/21 05:47:32;;;;;;;7.60;2.30;;;;;;;;;;1918066;75;20091;-80
2021/06/21 05:49:59;;;;;;;8.43;3.03;;;;;;;;;;1917018;75;20113;-78
2021/06/21 05:52:25;;;;;;;9.05;2.63;;;;;;;;;;1917354;75;20117;-80
2021/06/21 05:54:58;;;;;;;7.72;2.33;;;;;;;;;;1917934;75;20136;-81
2021/06/21 05:57:25;;;;;;;8.73;2.25;;;;;;;;;;1917292;75;20119;-79
2021/06/21 06:05:01;;;;;;;8.60;3.20;;;;;;;;;;1914019;67;20093;-80
2021/06/21 06:07:29;;;;;;;7.72;2.35;;;;;;;;;;1910790;75;20089;-81
2021/06/21 06:09:57;;;;;;;9.88;2.70;;;;;;;;;;1902019;75;20099;-79
2021/06/21 06:12:25;;;;;;;7.82;3.00;;;;;;;;;;1893517;76;20083;-79
2021/06/21 06:14:52;;;;;;;9.93;2.30;;;;;;;;;;1890744;76;20099;-79
2021/06/21 06:17:19;;;;;;;6.70;2.08;;;;;;;;;;1885428;76;20170;-79
2021/06/21 06:19:46;;;;;;;6.57;2.05;;;;;;;;;;1883011;76;20093;-79
2021/06/21 06:22:15;;;;;;;9.55;2.25;;;;;;;;;;1882994;76;20136;-79
2021/06/21 06:24:47;;;;;;;8.20;2.00;;;;;;;;;;1885066;76;20104;-80
2021/06/21 06:27:18;;;;;;;9.82;2.20;;;;;;;;;;1887089;76;20095;-80
2021/06/21 06:29:45;;;;;;;9.32;2.05;;;;;;;;;;1891931;76;20110;-81
2021/06/21 06:32:12;;;;;;;7.38;2.10;;;;;;;;;;1899405;76;20110;-80
2021/06/21 06:34:39;;;;;;;11.25;2.20;;;;;;;;;;1897682;75;20082;-80
2021/06/21 06:37:07;;;;;;;5.82;2.05;;;;;;;;;;1899201;76;20127;-79
2021/06/21 06:39:35;;;;;;;7.57;1.70;;;;;;;;;;1896356;76;20648;-80
2021/06/21 06:42:02;;;;;;;9.15;2.00;;;;;;;;;;1896151;76;20535;-81
2021/06/21 06:44:29;;;;;;;8.38;2.35;;;;;;;;;;1894081;76;20098;-81
2021/06/21 06:46:56;;;;;;;8.55;1.55;;;;;;;;;;1902560;75;20098;-80
2021/06/21 06:49:22;;;;;;;10.82;2.60;;;;;;;;;;1905173;75;20114;-79
2021/06/21 06:51:51;;;;;;;8.05;2.30;;;;;;;;;;1905241;75;20270;-79
2021/06/21 06:54:25;;;;;;;10.07;2.20;;;;;;;;;;1904812;75;20097;-80
2021/06/21 06:57:07;;;;;;;9.25;2.33;;;;;;;;;;1899454;75;20579;-80
2021/06/21 06:59:35;;;;;;;7.60;2.05;;;;;;;;;;1900844;75;20121;-80
2021/06/21 07:02:09;;;;;;;8.45;1.90;;;;;;;;;;1904266;75;20578;-81
2021/06/21 07:04:38;;;;;;;6.53;1.80;;;;;;;;;;1896069;76;20091;-80
2021/06/21 07:07:06;;;;;;;8.80;2.20;;;;;;;;;;1890378;76;20471;-80
2021/06/21 07:12:05;;;;;;;7.65;1.63;;;;;;;;;;1912735;75;20085;-78
2021/06/21 07:14:34;;;;;;;8.05;2.67;;;;;;;;;;1907255;67;20645;-79
2021/06/21 07:17:04;;;;;;;7.90;2.03;;;;;;;;;;1898697;76;20105;-79
2021/06/21 07:22:14;;;;;;;5.35;1.90;;;;;;;;;;1892808;76;20088;-80
2021/06/21 07:24:41;;;;;;;7.13;1.40;;;;;;;;;;1887171;76;20152;-79
2021/06/21 07:27:08;;;;;;;7.05;2.17;;;;;;;;;;1887445;76;20145;-79
2021/06/21 07:29:37;;;;;;;6.97;1.60;;;;;;;;;;1884867;76;20096;-80
2021/06/21 07:32:04;;;;;;;6.97;1.85;;;;;;;;;;1887565;76;20096;-79
2021/06/21 07:34:52;;;;;;;6.82;1.90;;;;;;;;;;1885545;76;20099;-80
2021/06/21 07:37:21;;;;;;;6.10;1.95;;;;;;;;;;1887428;76;20108;-79
2021/06/21 07:42:20;;;;;;;6.93;2.00;;;;;;;;;;1915796;67;20084;-80
2021/06/21 07:44:48;;;;;;;6.10;1.58;;;;;;;;;;1906824;75;20125;-80
2021/06/21 07:47:15;;;;;;;6.78;1.98;;;;;;;;;;1901168;76;20184;-79
2021/06/21 07:49:42;;;;;;;6.78;1.95;;;;;;;;;;1900921;75;20126;-79
2021/06/21 07:52:09;;;;;;;6.00;1.80;;;;;;;;;;1893894;76;20105;-81
2021/06/21 07:54:36;;;;;;;5.18;1.52;;;;;;;;;;1893138;76;20123;-79
2021/06/21 07:57:03;;;;;;;6.47;1.67;;;;;;;;;;1888446;76;20128;-80
2021/06/21 07:59:30;;;;;;;8.50;2.42;;;;;;;;;;1892885;76;20566;-80
2021/06/21 08:01:58;;;;;;;4.68;1.42;;;;;;;;;;1897831;76;20099;-81
2021/06/21 08:04:24;;;;;;;6.80;1.70;;;;;;;;;;1897983;75;20090;-80
2021/06/21 08:06:51;;;;;;;7.63;1.90;;;;;;;;;;1910269;75;20115;-82
2021/06/21 08:09:19;;;;;;;6.45;1.65;;;;;;;;;;1912628;75;20549;-82
2021/06/21 08:11:47;;;;;;;10.25;1.80;;;;;;;;;;1912745;75;20088;-81
2021/06/21 08:14:14;;;;;;;5.75;1.70;;;;;;;;;;1912847;75;20111;-81
2021/06/21 08:16:51;;;;;;;11.80;2.10;;;;;;;;;;1912811;75;20504;-82
2021/06/21 08:19:21;;;;;;;9.85;1.70;;;;;;;;;;1912677;75;20092;-83
2021/06/21 08:21:48;;;;;;;7.07;1.60;;;;;;;;;;1911489;75;20088;-79
2021/06/21 08:24:15;;;;;;;8.05;1.40;;;;;;;;;;1911103;75;20101;-81
2021/06/21 08:26:41;;;;;;;8.27;1.85;;;;;;;;;;1911031;75;20131;-82
2021/06/21 08:29:08;;;;;;;4.70;1.20;;;;;;;;;;1911303;75;20176;-81
2021/06/21 08:31:35;;;;;;;7.75;2.13;;;;;;;;;;1911676;75;20104;-80
2021/06/21 08:34:02;;;;;;;6.78;1.63;;;;;;;;;;1911610;75;20093;-80
2021/06/21 08:36:31;;;;;;;7.35;1.73;;;;;;;;;;1912533;75;20097;-80
2021/06/21 08:39:01;;;;;;;6.77;2.13;;;;;;;;;;1913592;75;20119;-81
2021/06/21 08:41:28;;;;;;;5.22;1.55;;;;;;;;;;1913866;67;20088;-85
2021/06/21 08:43:55;;;;;;;4.90;1.70;;;;;;;;;;1913078;75;20111;-81
2021/06/21 08:46:25;;;;;;;7.32;1.83;;;;;;;;;;1914269;75;20092;-87
2021/06/21 08:48:56;;;;;;;9.63;2.03;;;;;;;;;;1904542;75;20094;-79
2021/06/21 08:51:23;;;;;;;7.13;1.58;;;;;;;;;;1908539;75;20093;-80
2021/06/21 08:53:54;;;;;;;8.93;1.95;;;;;;;;;;1908714;75;20097;-81
2021/06/21 08:56:21;;;;;;;5.88;1.40;;;;;;;;;;1901767;75;20121;-80
2021/06/21 08:58:48;;;;;;;6.03;1.50;;;;;;;;;;1905882;75;20093;-79
2021/06/21 09:01:15;;;;;;;6.35;1.58;;;;;;;;;;1907495;75;20151;-80
2021/06/21 09:03:43;;;;;;;8.23;1.75;;;;;;;;;;1906484;75;20093;-78
2021/06/21 09:06:20;;;;;;;7.45;2.53;;;;;;;;;;1906998;75;20093;-80
2021/06/21 09:08:56;;;;;;;6.35;1.33;;;;;;;;;;1907129;75;20132;-79
2021/06/21 09:11:55;;;;;;;5.63;1.40;;;;;;;;;;1907849;75;20140;-81
2021/06/21 09:14:36;;;;;;;6.97;1.60;;;;;;;;;;1905072;75;20089;-79
2021/06/21 09:17:05;;;;;;;5.30;1.60;;;;;;;;;;1905780;75;20085;-79
2021/06/21 09:19:45;;;;;;;7.05;1.98;;;;;;;;;;1906242;75;20093;-80
2021/06/21 09:22:23;;;;;;;7.13;2.03;;;;;;;;;;1906329;75;20084;-80
2021/06/21 09:24:52;;;;;;;6.72;1.70;;;;;;;;;;1906557;75;20085;-81
2021/06/21 09:27:19;;;;;;;7.15;2.35;;;;;;;;;;1906429;75;20085;-80
2021/06/21 09:29:46;;;;;;;6.07;1.70;;;;;;;;;;1907292;75;20499;-79
2021/06/21 09:32:13;;;;;;;7.32;1.75;;;;;;;;;;1909713;75;20120;-79
2021/06/21 09:34:41;;;;;;;6.35;2.03;;;;;;;;;;1910451;75;20085;-81
2021/06/21 09:37:10;;;;;;;5.40;1.70;;;;;;;;;;1911027;75;20093;-80
2021/06/21 09:39:41;;;;;;;5.60;1.60;;;;;;;;;;1908353;75;20151;-79
2021/06/21 09:42:20;;;;;;;8.70;1.50;;;;;;;;;;1905046;75;20093;-79
2021/06/21 09:44:48;;;;;;;6.05;2.17;;;;;;;;;;1906687;67;20093;-79
2021/06/21 09:47:18;;;;;;;7.30;1.50;;;;;;;;;;1905073;75;20097;-78
2021/06/21 09:50:06;;;;;;;6.88;1.50;;;;;;;;;;1899827;75;20462;-79
2021/06/21 09:52:47;;;;;;;7.22;2.38;;;;;;;;;;1899096;75;20089;-77
2021/06/21 09:55:27;;;;;;;4.68;1.38;;;;;;;;;;1899653;75;20138;-81
2021/06/21 09:58:08;;;;;;;8.02;1.80;;;;;;;;;;1898163;75;20098;-80
2021/06/21 10:00:36;;;;;;;7.82;1.95;;;;;;;;;;1900698;75;21390;-79
2021/06/21 10:03:10;;;;;;;6.60;1.52;;;;;;;;;;1906515;75;20179;-79
2021/06/21 10:05:40;;;;;;;8.55;2.10;;;;;;;;;;1905044;75;20103;-79
2021/06/21 10:08:09;;;;;;;7.22;1.50;;;;;;;;;;1905768;75;20136;-79
2021/06/21 10:10:36;;;;;;;7.33;1.43;;;;;;;;;;1906389;75;20124;-80
2021/06/21 10:13:05;;;;;;;6.28;1.90;;;;;;;;;;1906455;75;20140;-79
2021/06/21 10:15:34;;;;;;;6.72;1.63;;;;;;;;;;1906248;75;20096;-79
2021/06/21 10:18:01;;;;;;;6.95;1.60;;;;;;;;;;1898287;75;20096;-79
2021/06/21 10:20:28;;;;;;;4.97;1.50;;;;;;;;;;1905622;75;20120;-80
2021/06/21 10:22:56;;;;;;;9.20;1.60;;;;;;;;;;1905209;75;20170;-79
2021/06/21 10:25:23;;;;;;;7.63;1.77;;;;;;;;;;1905940;75;20365;-79
2021/06/21 10:27:50;;;;;;;6.20;1.65;;;;;;;;;;1902854;75;20123;-79
2021/06/21 10:30:21;;;;;;;5.93;1.60;;;;;;;;;;1906227;75;20097;-80
2021/06/21 10:32:48;;;;;;;4.35;1.60;;;;;;;;;;1906582;75;20100;-79
2021/06/21 10:35:17;;;;;;;5.00;1.20;;;;;;;;;;1906878;75;20089;-83
2021/06/21 10:37:59;;;;;;;7.65;1.70;;;;;;;;;;1906826;75;20609;-78
2021/06/21 10:40:26;;;;;;;5.40;1.75;;;;;;;;;;1898744;75;20123;-80
2021/06/21 10:42:53;;;;;;;5.22;1.42;;;;;;;;;;1900591;75;20143;-79
2021/06/21 10:45:23;;;;;;;4.53;1.17;;;;;;;;;;1905606;75;20105;-79
2021/06/21 10:47:51;;;;;;;5.57;2.00;;;;;;;;;;1905651;75;20589;-80
2021/06/21 10:50:23;;;;;;;5.25;1.42;;;;;;;;;;1905796;67;20097;-80
2021/06/21 10:53:01;;;;;;;5.65;2.00;;;;;;;;;;1905940;75;20089;-79
2021/06/21 10:55:51;;;;;;;5.68;1.58;;;;;;;;;;1904368;75;20100;-79
2021/06/21 10:58:41;;;;;;;5.28;1.80;;;;;;;;;;1900452;75;20147;-80
2021/06/21 11:01:18;;;;;;;6.82;1.38;;;;;;;;;;1906110;75;20155;-80
2021/06/21 11:03:44;;;;;;;8.57;1.77;;;;;;;;;;1905591;75;20147;-80
2021/06/21 11:06:34;;;;;;;6.10;2.10;;;;;;;;;;1906616;75;20089;-80
2021/06/21 11:09:01;;;;;;;7.22;1.65;;;;;;;;;;1909789;75;20085;-82
2021/06/21 11:11:51;;;;;;;7.60;1.67;;;;;;;;;;1911037;75;20096;-83
2021/06/21 11:14:21;;;;;;;8.05;2.40;;;;;;;;;;1907563;75;20109;-82
2021/06/21 11:17:18;;;;;;;5.97;1.52;;;;;;;;;;1910056;75;20093;-83
2021/06/21 11:19:54;;;;;;;5.53;1.63;;;;;;;;;;1911077;75;20104;-83
2021/06/21 11:22:43;;;;;;;6.47;1.65;;;;;;;;;;1909815;75;20088;-82
2021/06/21 11:25:26;;;;;;;16.08;4.15;;;;;;;;;;1909345;75;20085;-79
2021/06/21 11:27:54;;;;;;;10.68;2.80;;;;;;;;;;1910655;75;21162;-79
2021/06/21 11:30:36;;;;;;;7.15;2.25;;;;;;;;;;1909761;75;20120;-79
2021/06/21 11:33:13;;;;;;;32.75;10.93;;;;;;;;;;1910637;75;20085;-79
2021/06/21 11:35:58;;;;;;;39.55;11.45;;;;;;;;;;1907784;75;20089;-80
2021/06/21 11:38:31;;;;;;;22.40;6.55;;;;;;;;;;1909292;75;20093;-80
2021/06/21 11:41:23;;;;;;;11.00;2.95;;;;;;;;;;1903643;75;20123;-81
2021/06/21 11:43:51;;;;;;;5.88;1.92;;;;;;;;;;1904802;75;20105;-80
2021/06/21 11:46:46;;;;;;;8.00;1.95;;;;;;;;;;1906452;75;20167;-80
2021/06/21 11:49:16;;;;;;;9.05;1.90;;;;;;;;;;1906807;75;20498;-79
2021/06/21 11:51:58;;;;;;;7.55;1.80;;;;;;;;;;1905720;75;20097;-79
2021/06/21 11:54:24;;;;;;;6.65;1.90;;;;;;;;;;1905980;75;20738;-80
2021/06/21 11:56:52;;;;;;;12.88;4.70;;;;;;;;;;1907112;75;20120;-81
2021/06/21 11:59:34;;;;;;;6.80;2.90;;;;;;;;;;1906769;75;20147;-79
2021/06/21 12:02:03;;;;;;;10.65;2.08;;;;;;;;;;1904976;75;20101;-80
2021/06/21 12:04:31;;;;;;;6.90;1.88;;;;;;;;;;1905328;75;20511;-79
2021/06/21 12:06:59;;;;;;;9.02;2.78;;;;;;;;;;1905178;75;20089;-79
2021/06/21 12:09:26;;;;;;;8.10;2.35;;;;;;;;;;1905122;75;20089;-80
2021/06/21 12:11:53;;;;;;;8.38;1.80;;;;;;;;;;1908089;67;20154;-76
2021/06/21 12:14:22;;;;;;;6.43;2.10;;;;;;;;;;1906101;75;20108;-76
2021/06/21 12:16:49;;;;;;;8.75;2.03;;;;;;;;;;1906195;75;20104;-77
2021/06/21 12:19:16;;;;;;;8.05;3.03;;;;;;;;;;1907025;75;20100;-77
2021/06/21 12:21:47;;;;;;;5.32;1.63;;;;;;;;;;1908524;75;20149;-76
2021/06/21 12:24:24;;;;;;;6.35;2.22;;;;;;;;;;1909286;75;20096;-75
2021/06/21 12:26:53;;;;;;;6.47;2.55;;;;;;;;;;1910087;75;20386;-78
2021/06/21 12:29:22;;;;;;;7.47;2.35;;;;;;;;;;1909752;75;20099;-78
2021/06/21 12:32:01;;;;;;;8.70;1.95;;;;;;;;;;1909821;75;20150;-78
2021/06/21 12:34:58;;;;;;;7.10;2.05;;;;;;;;;;1909856;75;20088;-77
2021/06/21 12:37:30;;;;;;;5.40;1.70;;;;;;;;;;1900465;75;20261;-78
2021/06/21 12:40:02;;;;;;;6.65;1.70;;;;;;;;;;1908363;75;20098;-77
2021/06/21 12:42:30;;;;;;;9.40;2.90;;;;;;;;;;1909644;75;20100;-78
2021/06/21 12:44:57;;;;;;;8.13;2.10;;;;;;;;;;1910417;75;20088;-77
2021/06/21 12:47:27;;;;;;;5.45;1.90;;;;;;;;;;1909439;75;20088;-75
2021/06/21 12:49:54;;;;;;;;;;;;;;;;;;1910391;75;20160;-78
2021/06/21 12:52:23;;;;;;;10.05;1.95;;;;;;;;;;1910398;75;19964;-78
2021/06/21 12:55:05;;;;;;;7.30;1.70;;;;;;;;;;1910716;75;20104;-79
2021/06/21 12:57:49;;;;;;;5.57;1.73;;;;;;;;;;1910814;75;20156;-78
2021/06/21 13:00:17;;;;;;;7.60;1.88;;;;;;;;;;1909413;75;20096;-77
2021/06/21 13:02:44;;;;;;;5.63;1.67;;;;;;;;;;1909606;75;20084;-77
2021/06/21 13:05:13;;;;;;;8.15;2.00;;;;;;;;;;1909447;75;20127;-77
2021/06/21 13:07:41;;;;;;;6.80;1.90;;;;;;;;;;1909554;75;20134;-77
2021/06/21 13:10:09;;;;;;;10.88;1.92;;;;;;;;;;1910860;67;20100;-79
2021/06/21 13:12:38;;;;;;;4.07;1.88;;;;;;;;;;1909384;75;20088;-76
2021/06/21 13:15:14;;;;;;;5.47;1.70;;;;;;;;;;1909024;75;20100;-78
2021/06/21 13:17:44;;;;;;;10.32;2.30;;;;;;;;;;1908685;75;20136;-78
2021/06/21 13:20:15;;;;;;;10.32;2.08;;;;;;;;;;1908155;75;20091;-78
2021/06/21 13:22:48;;;;;;;8.80;2.13;;;;;;;;;;1909024;75;20099;-79
2021/06/21 13:25:19;;;;;;;8.52;2.45;;;;;;;;;;1908833;75;20092;-77
2021/06/21 13:27:54;;;;;;;8.77;1.77;;;;;;;;;;1908151;75;20137;-77
2021/06/21 13:30:30;;;;;;;7.15;1.92;;;;;;;;;;1908885;75;20088;-77
2021/06/21 13:33:00;;;;;;;10.52;2.35;;;;;;;;;;1909065;75;20092;-79
2021/06/21 13:35:27;;;;;;;6.50;2.25;;;;;;;;;;1908587;75;20088;-78
2021/06/21 13:37:56;;;;;;;9.20;1.70;;;;;;;;;;1909136;75;20099;-78
2021/06/21 13:40:26;;;;;;;4.63;1.60;;;;;;;;;;1909883;75;20088;-79
2021/06/21 13:42:55;;;;;;;8.48;2.00;;;;;;;;;;1908791;75;20512;-77
2021/06/21 13:45:25;;;;;;;7.67;2.10;;;;;;;;;;1908786;75;20577;-78
2021/06/21 13:48:04;;;;;;;6.15;1.80;;;;;;;;;;1908942;67;20309;-78
2021/06/21 13:50:32;;;;;;;;;;;;;;;;;;1908273;75;20076;-77
2021/06/21 13:52:59;;;;;;;41.15;12.32;;;;;;;;;;1909462;75;19974;-76
2021/06/21 13:55:39;;;;;;;13.98;3.40;;;;;;;;;;1910508;75;20088;-76
2021/06/21 13:58:06;;;;;;;9.85;2.05;;;;;;;;;;1911270;75;20087;-77
2021/06/21 14:00:35;;;;;;;9.30;2.75;;;;;;;;;;1910596;75;20096;-78
2021/06/21 14:03:03;;;;;;;14.30;2.10;;;;;;;;;;1911837;75;20096;-78
2021/06/21 14:05:30;;;;;;;6.88;1.90;;;;;;;;;;1910072;75;20123;-76
2021/06/21 14:07:57;;;;;;;6.55;2.03;;;;;;;;;;1910283;75;20088;-77
2021/06/21 14:10:25;;;;;;;7.20;2.10;;;;;;;;;;1910341;75;20100;-77
2021/06/21 14:12:54;;;;;;;10.35;3.72;;;;;;;;;;1912475;75;20210;-77
2021/06/21 14:15:21;;;;;;;10.20;2.30;;;;;;;;;;1911503;75;20084;-78
2021/06/21 14:17:47;;;;;;;7.13;2.33;;;;;;;;;;1909250;75;20589;-76
2021/06/21 14:20:15;;;;;;;9.20;2.72;;;;;;;;;;1909179;75;20084;-77
2021/06/21 14:22:43;;;;;;;7.43;2.30;;;;;;;;;;1909687;75;20092;-78
2021/06/21 14:25:11;;;;;;;7.30;2.40;;;;;;;;;;1909324;75;20142;-77
2021/06/21 14:27:38;;;;;;;9.50;3.90;;;;;;;;;;1909515;75;20088;-76
2021/06/21 14:30:08;;;;;;;9.38;2.30;;;;;;;;;;1909130;75;20088;-77
2021/06/21 14:32:35;;;;;;;6.78;1.73;;;;;;;;;;1909525;75;20359;-77
2021/06/21 14:35:02;;;;;;;7.28;2.30;;;;;;;;;;1909799;75;20096;-78
2021/06/21 14:37:29;;;;;;;8.43;1.90;;;;;;;;;;1910177;75;20398;-80
2021/06/21 14:39:56;;;;;;;7.18;2.42;;;;;;;;;;1911302;75;20529;-81
2021/06/21 14:42:23;;;;;;;7.68;2.53;;;;;;;;;;1911880;75;20153;-83
2021/06/21 14:44:49;;;;;;;9.10;2.28;;;;;;;;;;1912528;75;20096;-81
2021/06/21 14:47:20;;;;;;;8.32;2.50;;;;;;;;;;1912191;75;20118;-82
2021/06/21 14:49:54;;;;;;;11.38;3.90;;;;;;;;;;1911550;75;20085;-78
2021/06/21 14:52:21;;;;;;;12.73;3.00;;;;;;;;;;1911666;75;20098;-79
2021/06/21 14:54:47;;;;;;;9.07;2.63;;;;;;;;;;1910326;75;20166;-78
2021/06/21 14:57:16;;;;;;;10.95;2.50;;;;;;;;;;1910291;75;20084;-79
2021/06/21 14:59:43;;;;;;;12.27;2.95;;;;;;;;;;1912014;75;20088;-79
2021/06/21 15:02:10;;;;;;;9.60;2.88;;;;;;;;;;1911598;75;20088;-78
2021/06/21 15:04:38;;;;;;;9.32;4.15;;;;;;;;;;1910674;75;20728;-77
2021/06/21 15:07:05;;;;;;;7.93;2.50;;;;;;;;;;1910708;75;20096;-77
2021/06/21 15:09:32;;;;;;;8.00;2.77;;;;;;;;;;1911302;75;20127;-77